Skip Navigation Links
NOAA logo - Click to go to the NOAA homepage
NOAA's National Weather Service
Alaska Aviation Weather Unit
  NWS logo - Click to go to the NWS homepage
Left Navbar Graphic     21 AKDT = 05 GMT

   
NOAA is celebrating 200 years of science, service, and stewardship. Visit the NOAA 200th celebration Web site to learn more.
USA.gov is the U.S. Government's official Web portal to all Federal, state and local government Web resources and services.
Facebook
NWS on Facebook

AAWU Home :: Display TAF Add Bookmark
METAR PAMM 270056Z AUTO VRB04KT 10SM -RA OVC028 09/06 A2957 RMK AO2
     SLP003 P0001 T00890056=

SPECI PAMM 270147Z AUTO VRB05KT 10SM -RA BKN007 BKN022 OVC026 08/07
     A2959 RMK AO2 P0001=

METAR PAMM 270156Z AUTO VRB06KT 10SM -RA BKN007 BKN013 OVC022 08/07
 A2959 RMK AO2 CIG 007V011 SLP012 P0001 T00830072=

SPECI PAMM 270234Z AUTO 19007KT 10SM -RA FEW007 BKN027 OVC033 08/07
     A2962 RMK AO2 P0001=

METAR PAMM 270256Z AUTO 20009KT 10SM -RA SCT025 BKN030 OVC037 08/07
     A2963 RMK AO2 SLP026 P0002 60004 T00780067 53022=

SPECI PAMM 270323Z AUTO 20010KT 10SM -RA BKN023 BKN027 OVC036 08/06
     A2966 RMK AO2 P0000=

SPECI PAMM 270352Z AUTO 20009G16KT 10SM -RA SCT030 OVC037 07/06 A2968
     RMK AO2 P0001=

METAR PAMM 270356Z AUTO 20009G16KT 10SM -RA FEW027 OVC037 07/06 A2968
     RMK AO2 SLP041 P0001 T00720056=

METAR PAMM 270456Z AUTO 20008KT 10SM -RA BKN047 OVC055 07/05 A2973 RMK
     AO2 SLP057 P0000 T00720050=


NOAA's National Weather Service
Alaska Aviation Weather Unit
6930 Sand Lake Road
Anchorage, AK 99502-1845
Disclaimer
Credits
Glossary
Privacy Policy
About Us
Career Opportunities
Contact AAWU Internet Services Site last modified: April, 17th 2012